sensor_id;sensor_type;location;lat;lon;timestamp;pressure;altitude;pressure_sealevel;temperature;humidity
10006;BME280;5042;42.626;23.382;2024-02-26T00:02:06;151299.28;;;8.75;100.00
10006;BME280;5042;42.626;23.382;2024-02-26T00:04:33;151283.78;;;8.69;100.00
10006;BME280;5042;42.626;23.382;2024-02-26T00:07:01;151292.81;;;8.73;100.00
10006;BME280;5042;42.626;23.382;2024-02-26T00:09:28;151304.47;;;8.77;100.00
10006;BME280;5042;42.626;23.382;2024-02-26T00:11:55;151296.72;;;8.74;100.00
10006;BME280;5042;42.626;23.382;2024-02-26T00:14:23;151314.84;;;8.81;100.00
10006;BME280;5042;42.626;23.382;2024-02-26T00:16:50;151331.69;;;8.88;100.00
10006;BME280;5042;42.626;23.382;2024-02-26T00:19:17;151353.69;;;8.97;100.00
10006;BME280;5042;42.626;23.382;2024-02-26T00:21:44;151371.81;;;9.04;100.00
10006;BME280;5042;42.626;23.382;2024-02-26T00:24:12;151399.03;;;9.15;100.00
10006;BME280;5042;42.626;23.382;2024-02-26T00:26:39;151421.09;;;9.23;100.00
10006;BME280;5042;42.626;23.382;2024-02-26T00:29:06;151326.50;;;8.86;100.00
10006;BME280;5042;42.626;23.382;2024-02-26T00:31:33;151444.41;;;9.32;100.00
10006;BME280;5042;42.626;23.382;2024-02-26T00:34:00;151454.75;;;9.37;100.00
10006;BME280;5042;42.626;23.382;2024-02-26T00:36:27;151439.22;;;9.30;100.00
10006;BME280;5042;42.626;23.382;2024-02-26T00:38:54;151412.00;;;9.20;100.00
10006;BME280;5042;42.626;23.382;2024-02-26T00:41:22;151408.09;;;9.18;100.00
10006;BME280;5042;42.626;23.382;2024-02-26T00:43:49;151353.69;;;8.97;100.00
10006;BME280;5042;42.626;23.382;2024-02-26T00:46:16;151365.34;;;9.01;100.00
10006;BME280;5042;42.626;23.382;2024-02-26T00:48:43;151367.97;;;9.02;100.00
10006;BME280;5042;42.626;23.382;2024-02-26T00:51:10;151366.69;;;9.02;100.00
10006;BME280;5042;42.626;23.382;2024-02-26T00:53:37;151365.34;;;9.01;100.00
10006;BME280;5042;42.626;23.382;2024-02-26T00:56:04;151384.81;;;9.09;100.00
10006;BME280;5042;42.626;23.382;2024-02-26T00:58:32;151410.69;;;9.19;100.00
10006;BME280;5042;42.626;23.382;2024-02-26T01:00:59;151427.56;;;9.26;100.00
10006;BME280;5042;42.626;23.382;2024-02-26T01:03:26;151430.13;;;9.27;100.00
10006;BME280;5042;42.626;23.382;2024-02-26T01:05:53;151405.50;;;9.17;100.00
10006;BME280;5042;42.626;23.382;2024-02-26T01:08:20;151405.50;;;9.17;100.00
10006;BME280;5042;42.626;23.382;2024-02-26T01:10:47;151430.13;;;9.27;100.00
10006;BME280;5042;42.626;23.382;2024-02-26T01:13:14;151241.03;;;8.52;100.00
10006;BME280;5042;42.626;23.382;2024-02-26T01:15:42;151325.22;;;8.85;100.00
10006;BME280;5042;42.626;23.382;2024-02-26T01:18:10;151231.94;;;8.48;100.00
10006;BME280;5042;42.626;23.382;2024-02-26T01:20:37;151318.75;;;8.83;100.00
10006;BME280;5042;42.626;23.382;2024-02-26T01:23:04;151335.53;;;8.89;100.00
10006;BME280;5042;42.626;23.382;2024-02-26T01:25:31;151355.00;;;8.97;100.00
10006;BME280;5042;42.626;23.382;2024-02-26T01:27:58;151401.59;;;9.16;100.00
10006;BME280;5042;42.626;23.382;2024-02-26T01:30:25;151405.50;;;9.17;100.00
10006;BME280;5042;42.626;23.382;2024-02-26T01:32:53;151435.31;;;9.29;100.00
10006;BME280;5042;42.626;23.382;2024-02-26T01:35:20;151431.41;;;9.27;100.00
10006;BME280;5042;42.626;23.382;2024-02-26T01:37:47;151426.22;;;9.25;100.00
10006;BME280;5042;42.626;23.382;2024-02-26T01:40:14;151375.72;;;9.05;100.00
10006;BME280;5042;42.626;23.382;2024-02-26T01:42:45;151335.53;;;8.89;100.00
10006;BME280;5042;42.626;23.382;2024-02-26T01:45:14;151342.00;;;8.92;100.00
10006;BME280;5042;42.626;23.382;2024-02-26T01:47:47;151327.78;;;8.86;100.00
10006;BME280;5042;42.626;23.382;2024-02-26T01:50:16;151309.66;;;8.79;100.00
10006;BME280;5042;42.626;23.382;2024-02-26T01:52:43;151320.03;;;8.83;100.00
10006;BME280;5042;42.626;23.382;2024-02-26T01:55:11;151351.09;;;8.96;100.00
10006;BME280;5042;42.626;23.382;2024-02-26T01:57:39;151318.75;;;8.83;100.00
10006;BME280;5042;42.626;23.382;2024-02-26T02:00:08;151356.28;;;8.98;100.00
10006;BME280;5042;42.626;23.382;2024-02-26T02:02:35;151340.72;;;8.91;100.00
10006;BME280;5042;42.626;23.382;2024-02-26T02:05:05;151317.41;;;8.82;100.00
10006;BME280;5042;42.626;23.382;2024-02-26T02:07:34;151277.28;;;8.66;100.00
10006;BME280;5042;42.626;23.382;2024-02-26T02:10:02;151244.91;;;8.54;100.00
10006;BME280;5042;42.626;23.382;2024-02-26T02:12:30;151264.34;;;8.61;100.00
10006;BME280;5042;42.626;23.382;2024-02-26T02:14:58;151275.97;;;8.66;100.00
10006;BME280;5042;42.626;23.382;2024-02-26T02:17:26;151281.16;;;8.68;100.00
10006;BME280;5042;42.626;23.382;2024-02-26T02:19:54;151307.09;;;8.78;100.00
10006;BME280;5042;42.626;23.382;2024-02-26T02:22:22;151294.09;;;8.73;100.00
10006;BME280;5042;42.626;23.382;2024-02-26T02:24:52;151275.97;;;8.66;100.00
10006;BME280;5042;42.626;23.382;2024-02-26T02:27:19;151345.91;;;8.94;100.00
10006;BME280;5042;42.626;23.382;2024-02-26T02:29:47;151373.16;;;9.04;100.00
10006;BME280;5042;42.626;23.382;2024-02-26T02:32:14;151397.75;;;9.14;100.00
10006;BME280;5042;42.626;23.382;2024-02-26T02:34:42;151384.81;;;9.09;100.00
10006;BME280;5042;42.626;23.382;2024-02-26T02:37:09;151397.75;;;9.14;100.00
10006;BME280;5042;42.626;23.382;2024-02-26T02:39:38;151371.81;;;9.04;100.00
10006;BME280;5042;42.626;23.382;2024-02-26T02:42:05;151369.25;;;9.03;100.00
10006;BME280;5042;42.626;23.382;2024-02-26T02:44:31;151395.13;;;9.13;100.00
10006;BME280;5042;42.626;23.382;2024-02-26T02:46:58;151355.00;;;8.97;100.00
10006;BME280;5042;42.626;23.382;2024-02-26T02:49:25;151347.19;;;8.94;100.00
10006;BME280;5042;42.626;23.382;2024-02-26T02:51:52;151334.25;;;8.89;100.00
10006;BME280;5042;42.626;23.382;2024-02-26T02:54:20;151332.97;;;8.88;100.00
10006;BME280;5042;42.626;23.382;2024-02-26T02:56:48;151331.69;;;8.88;100.00
10006;BME280;5042;42.626;23.382;2024-02-26T02:59:15;151348.53;;;8.95;100.00
10006;BME280;5042;42.626;23.382;2024-02-26T03:01:42;151345.91;;;8.94;100.00
10006;BME280;5042;42.626;23.382;2024-02-26T03:04:09;151364.06;;;9.01;100.00
10006;BME280;5042;42.626;23.382;2024-02-26T03:06:36;151356.28;;;8.98;100.00
10006;BME280;5042;42.626;23.382;2024-02-26T03:09:03;151317.41;;;8.82;100.00
10006;BME280;5042;42.626;23.382;2024-02-26T03:11:30;151317.41;;;8.82;100.00
10006;BME280;5042;42.626;23.382;2024-02-26T03:13:58;151325.22;;;8.85;100.00
10006;BME280;5042;42.626;23.382;2024-02-26T03:16:25;151342.00;;;8.92;100.00
10006;BME280;5042;42.626;23.382;2024-02-26T03:18:52;151353.69;;;8.97;100.00
10006;BME280;5042;42.626;23.382;2024-02-26T03:21:19;151364.06;;;9.01;100.00
10006;BME280;5042;42.626;23.382;2024-02-26T03:23:46;151356.28;;;8.98;100.00
10006;BME280;5042;42.626;23.382;2024-02-26T03:26:12;151356.28;;;8.98;100.00
10006;BME280;5042;42.626;23.382;2024-02-26T03:28:40;151334.25;;;8.89;100.00
10006;BME280;5042;42.626;23.382;2024-02-26T03:31:08;151355.00;;;8.97;100.00
10006;BME280;5042;42.626;23.382;2024-02-26T03:33:36;151374.44;;;9.05;100.00
10006;BME280;5042;42.626;23.382;2024-02-26T03:36:03;151374.44;;;9.05;100.00
10006;BME280;5042;42.626;23.382;2024-02-26T03:38:30;151365.34;;;9.01;100.00
10006;BME280;5042;42.626;23.382;2024-02-26T03:40:57;151364.06;;;9.01;100.00
10006;BME280;5042;42.626;23.382;2024-02-26T03:43:24;151378.34;;;9.06;100.00
10006;BME280;5042;42.626;23.382;2024-02-26T03:45:51;151360.16;;;8.99;100.00
10006;BME280;5042;42.626;23.382;2024-02-26T03:48:20;151361.47;;;9.00;100.00
10006;BME280;5042;42.626;23.382;2024-02-26T03:50:46;151364.06;;;9.01;100.00
10006;BME280;5042;42.626;23.382;2024-02-26T03:53:13;151389.94;;;9.11;100.00
10006;BME280;5042;42.626;23.382;2024-02-26T03:55:40;151377.00;;;9.06;100.00
10006;BME280;5042;42.626;23.382;2024-02-26T03:58:08;151386.09;;;9.09;100.00
10006;BME280;5042;42.626;23.382;2024-02-26T04:00:35;151387.38;;;9.10;100.00
10006;BME280;5042;42.626;23.382;2024-02-26T04:03:02;151161.97;;;8.21;100.00
10006;BME280;5042;42.626;23.382;2024-02-26T04:05:30;151326.50;;;8.86;100.00
10006;BME280;5042;42.626;23.382;2024-02-26T04:07:57;151318.75;;;8.83;100.00
10006;BME280;5042;42.626;23.382;2024-02-26T04:10:24;151329.06;;;8.87;100.00
10006;BME280;5042;42.626;23.382;2024-02-26T04:12:51;151335.53;;;8.89;100.00
10006;BME280;5042;42.626;23.382;2024-02-26T04:15:18;151358.88;;;8.99;100.00
10006;BME280;5042;42.626;23.382;2024-02-26T04:17:45;151370.53;;;9.03;100.00
10006;BME280;5042;42.626;23.382;2024-02-26T04:20:14;151373.16;;;9.04;100.00
10006;BME280;5042;42.626;23.382;2024-02-26T04:22:42;151357.56;;;8.98;100.00
10006;BME280;5042;42.626;23.382;2024-02-26T04:25:09;151392.56;;;9.12;100.00
10006;BME280;5042;42.626;23.382;2024-02-26T04:27:36;151387.38;;;9.10;100.00
10006;BME280;5042;42.626;23.382;2024-02-26T04:30:04;151362.78;;;9.00;100.00
10006;BME280;5042;42.626;23.382;2024-02-26T04:32:31;151367.97;;;9.02;100.00
10006;BME280;5042;42.626;23.382;2024-02-26T04:34:59;151336.88;;;8.90;100.00
10006;BME280;5042;42.626;23.382;2024-02-26T04:37:26;151288.97;;;8.71;100.00
10006;BME280;5042;42.626;23.382;2024-02-26T04:39:58;151286.34;;;8.70;100.00
10006;BME280;5042;42.626;23.382;2024-02-26T04:42:25;151270.81;;;8.64;100.00
10006;BME280;5042;42.626;23.382;2024-02-26T04:44:53;151270.81;;;8.64;100.00
10006;BME280;5042;42.626;23.382;2024-02-26T04:47:20;151264.34;;;8.61;100.00
10006;BME280;5042;42.626;23.382;2024-02-26T04:49:48;151247.50;;;8.55;100.00
10006;BME280;5042;42.626;23.382;2024-02-26T04:52:15;151190.47;;;8.32;100.00
10006;BME280;5042;42.626;23.382;2024-02-26T04:54:42;151174.97;;;8.26;100.00
10006;BME280;5042;42.626;23.382;2024-02-26T04:57:10;151181.44;;;8.28;100.00
10006;BME280;5042;42.626;23.382;2024-02-26T04:59:37;151156.84;;;8.19;100.00
10006;BME280;5042;42.626;23.382;2024-02-26T05:02:06;151120.59;;;8.04;100.00
10006;BME280;5042;42.626;23.382;2024-02-26T05:04:33;151103.75;;;7.98;100.00
10006;BME280;5042;42.626;23.382;2024-02-26T05:06:59;151097.28;;;7.95;100.00
10006;BME280;5042;42.626;23.382;2024-02-26T05:09:26;151093.38;;;7.94;100.00
10006;BME280;5042;42.626;23.382;2024-02-26T05:11:53;151079.16;;;7.88;100.00
10006;BME280;5042;42.626;23.382;2024-02-26T05:14:22;151086.91;;;7.91;100.00
10006;BME280;5042;42.626;23.382;2024-02-26T05:16:48;151070.09;;;7.84;100.00
10006;BME280;5042;42.626;23.382;2024-02-26T05:19:15;151067.53;;;7.83;100.00
10006;BME280;5042;42.626;23.382;2024-02-26T05:21:42;151084.34;;;7.90;100.00
10006;BME280;5042;42.626;23.382;2024-02-26T05:24:10;151058.44;;;7.80;100.00
10006;BME280;5042;42.626;23.382;2024-02-26T05:26:37;151050.69;;;7.77;100.00
10006;BME280;5042;42.626;23.382;2024-02-26T05:29:04;151072.69;;;7.85;100.00
10006;BME280;5042;42.626;23.382;2024-02-26T05:31:32;151077.84;;;7.88;100.00
10006;BME280;5042;42.626;23.382;2024-02-26T05:33:59;151095.97;;;7.95;100.00
10006;BME280;5042;42.626;23.382;2024-02-26T05:36:26;151089.50;;;7.92;100.00
10006;BME280;5042;42.626;23.382;2024-02-26T05:38:54;151071.38;;;7.85;100.00
10006;BME280;5042;42.626;23.382;2024-02-26T05:41:21;151070.09;;;7.84;100.00
10006;BME280;5042;42.626;23.382;2024-02-26T05:43:51;151061.06;;;7.81;100.00
10006;BME280;5042;42.626;23.382;2024-02-26T05:46:18;151006.72;;;7.59;100.00
10006;BME280;5042;42.626;23.382;2024-02-26T05:48:49;151097.28;;;7.95;100.00
10006;BME280;5042;42.626;23.382;2024-02-26T05:51:16;151095.97;;;7.95;100.00
10006;BME280;5042;42.626;23.382;2024-02-26T05:53:43;151119.25;;;8.04;100.00
10006;BME280;5042;42.626;23.382;2024-02-26T05:56:10;151141.28;;;8.13;100.00
10006;BME280;5042;42.626;23.382;2024-02-26T05:58:37;151145.19;;;8.14;100.00
10006;BME280;5042;42.626;23.382;2024-02-26T06:01:04;151176.25;;;8.26;100.00
10006;BME280;5042;42.626;23.382;2024-02-26T06:03:30;151186.63;;;8.31;100.00
10006;BME280;5042;42.626;23.382;2024-02-26T06:05:59;151217.72;;;8.43;100.00
10006;BME280;5042;42.626;23.382;2024-02-26T06:08:26;151231.94;;;8.48;100.00
10006;BME280;5042;42.626;23.382;2024-02-26T06:10:53;151257.84;;;8.59;100.00
10006;BME280;5042;42.626;23.382;2024-02-26T06:13:20;151299.28;;;8.75;100.00
10006;BME280;5042;42.626;23.382;2024-02-26T06:15:47;151316.13;;;8.82;100.00
10006;BME280;5042;42.626;23.382;2024-02-26T06:18:14;151342.00;;;8.92;100.00
10006;BME280;5042;42.626;23.382;2024-02-26T06:20:41;151373.16;;;9.04;100.00
10006;BME280;5042;42.626;23.382;2024-02-26T06:23:09;151400.31;;;9.15;100.00
10006;BME280;5042;42.626;23.382;2024-02-26T06:25:36;151418.47;;;9.22;100.00
10006;BME280;5042;42.626;23.382;2024-02-26T06:28:04;151446.97;;;9.33;100.00
10006;BME280;5042;42.626;23.382;2024-02-26T06:30:31;151467.69;;;9.42;100.00
10006;BME280;5042;42.626;23.382;2024-02-26T06:32:58;151529.91;;;9.66;100.00
10006;BME280;5042;42.626;23.382;2024-02-26T06:35:25;151541.59;;;9.71;100.00
10006;BME280;5042;42.626;23.382;2024-02-26T06:37:52;151494.91;;;9.52;100.00
10006;BME280;5042;42.626;23.382;2024-02-26T06:40:20;151462.53;;;9.40;100.00
10006;BME280;5042;42.626;23.382;2024-02-26T06:42:47;151378.34;;;9.06;100.00
10006;BME280;5042;42.626;23.382;2024-02-26T06:45:15;151377.00;;;9.06;100.00
10006;BME280;5042;42.626;23.382;2024-02-26T06:47:42;151369.25;;;9.03;100.00
10006;BME280;5042;42.626;23.382;2024-02-26T06:50:11;151340.72;;;8.91;100.00
10006;BME280;5042;42.626;23.382;2024-02-26T06:52:38;151391.28;;;9.11;100.00
10006;BME280;5042;42.626;23.382;2024-02-26T06:55:06;151349.81;;;8.95;100.00
10006;BME280;5042;42.626;23.382;2024-02-26T06:57:35;151427.56;;;9.26;100.00
10006;BME280;5042;42.626;23.382;2024-02-26T07:00:03;151418.47;;;9.22;100.00
10006;BME280;5042;42.626;23.382;2024-02-26T07:02:30;151461.22;;;9.39;100.00
10006;BME280;5042;42.626;23.382;2024-02-26T07:04:57;151459.94;;;9.39;100.00
10006;BME280;5042;42.626;23.382;2024-02-26T07:07:24;151485.81;;;9.49;100.00
10006;BME280;5042;42.626;23.382;2024-02-26T07:09:51;151498.81;;;9.54;100.00
10006;BME280;5042;42.626;23.382;2024-02-26T07:12:18;151522.09;;;9.63;100.00
10006;BME280;5042;42.626;23.382;2024-02-26T07:14:48;151523.44;;;9.64;100.00
10006;BME280;5042;42.626;23.382;2024-02-26T07:17:15;151577.88;;;9.85;100.00
10006;BME280;5042;42.626;23.382;2024-02-26T07:19:42;151598.59;;;9.93;100.00
10006;BME280;5042;42.626;23.382;2024-02-26T07:22:09;151628.41;;;10.05;100.00
10006;BME280;5042;42.626;23.382;2024-02-26T07:24:36;151645.28;;;10.12;100.00
10006;BME280;5042;42.626;23.382;2024-02-26T07:27:03;151658.22;;;10.17;100.00
10006;BME280;5042;42.626;23.382;2024-02-26T07:29:30;151677.66;;;10.25;100.00
10006;BME280;5042;42.626;23.382;2024-02-26T07:31:59;151597.31;;;9.93;100.00
10006;BME280;5042;42.626;23.382;2024-02-26T07:34:26;151693.31;;;10.31;100.00
10006;BME280;5042;42.626;23.382;2024-02-26T07:36:55;151724.41;;;10.43;100.00
10006;BME280;5042;42.626;23.382;2024-02-26T07:39:22;151736.09;;;10.48;100.00
10006;BME280;5042;42.626;23.382;2024-02-26T07:41:49;151716.66;;;10.40;100.00
10006;BME280;5042;42.626;23.382;2024-02-26T07:44:18;151750.34;;;10.53;100.00
10006;BME280;5042;42.626;23.382;2024-02-26T07:46:45;151778.88;;;10.65;100.00
10006;BME280;5042;42.626;23.382;2024-02-26T07:49:13;151767.19;;;10.60;100.00
10006;BME280;5042;42.626;23.382;2024-02-26T07:51:40;151747.75;;;10.52;100.00
10006;BME280;5042;42.626;23.382;2024-02-26T07:54:07;151751.66;;;10.54;100.00
10006;BME280;5042;42.626;23.382;2024-02-26T07:56:34;151763.34;;;10.58;100.00
10006;BME280;5042;42.626;23.382;2024-02-26T07:59:01;151750.34;;;10.53;100.00
10006;BME280;5042;42.626;23.382;2024-02-26T08:01:28;151732.19;;;10.46;100.00
10006;BME280;5042;42.626;23.382;2024-02-26T08:03:55;151751.66;;;10.54;100.00
10006;BME280;5042;42.626;23.382;2024-02-26T08:06:23;151765.91;;;10.59;100.00
10006;BME280;5042;42.626;23.382;2024-02-26T08:08:51;151791.84;;;10.70;100.00
10006;BME280;5042;42.626;23.382;2024-02-26T08:11:18;151823.00;;;10.82;100.00
10006;BME280;5042;42.626;23.382;2024-02-26T08:13:45;151854.13;;;10.94;100.00
10006;BME280;5042;42.626;23.382;2024-02-26T08:16:12;151871.00;;;11.01;100.00
10006;BME280;5042;42.626;23.382;2024-02-26T08:18:38;151942.31;;;11.29;100.00
10006;BME280;5042;42.626;23.382;2024-02-26T08:21:05;151977.38;;;11.43;100.00
10006;BME280;5042;42.626;23.382;2024-02-26T08:23:35;152030.59;;;11.64;100.00
10006;BME280;5042;42.626;23.382;2024-02-26T08:26:02;152098.13;;;11.91;100.00
10006;BME280;5042;42.626;23.382;2024-02-26T08:28:32;152134.47;;;12.05;100.00
10006;BME280;5042;42.626;23.382;2024-02-26T08:30:58;152150.06;;;12.11;100.00
10006;BME280;5042;42.626;23.382;2024-02-26T08:33:25;152178.66;;;12.22;100.00
10006;BME280;5042;42.626;23.382;2024-02-26T08:35:52;152182.53;;;12.24;100.00
10006;BME280;5042;42.626;23.382;2024-02-26T08:38:19;152220.22;;;12.39;100.00
10006;BME280;5042;42.626;23.382;2024-02-26T08:40:48;152215.00;;;12.37;100.00
10006;BME280;5042;42.626;23.382;2024-02-26T08:43:15;152216.31;;;12.37;100.00
10006;BME280;5042;42.626;23.382;2024-02-26T08:45:41;152224.09;;;12.40;100.00
10006;BME280;5042;42.626;23.382;2024-02-26T08:48:08;152233.19;;;12.44;100.00
10006;BME280;5042;42.626;23.382;2024-02-26T08:50:35;152266.94;;;12.57;100.00
10006;BME280;5042;42.626;23.382;2024-02-26T08:53:02;152279.91;;;12.62;100.00
10006;BME280;5042;42.626;23.382;2024-02-26T08:55:29;152240.97;;;12.47;100.00
10006;BME280;5042;42.626;23.382;2024-02-26T08:57:57;152230.56;;;12.43;100.00
10006;BME280;5042;42.626;23.382;2024-02-26T09:00:24;152246.19;;;12.49;100.00
10006;BME280;5042;42.626;23.382;2024-02-26T09:02:51;152248.75;;;12.50;100.00
10006;BME280;5042;42.626;23.382;2024-02-26T09:05:18;152222.78;;;12.40;100.00
10006;BME280;5042;42.626;23.382;2024-02-26T09:07:45;152202.03;;;12.32;100.00
10006;BME280;5042;42.626;23.382;2024-02-26T09:10:13;152231.91;;;12.43;100.00
10006;BME280;5042;42.626;23.382;2024-02-26T09:12:40;152163.06;;;12.16;100.00
10006;BME280;5042;42.626;23.382;2024-02-26T09:15:09;152199.41;;;12.30;100.00
10006;BME280;5042;42.626;23.382;2024-02-26T09:17:36;152196.84;;;12.29;100.00
10006;BME280;5042;42.626;23.382;2024-02-26T09:20:04;152239.69;;;12.46;100.00
10006;BME280;5042;42.626;23.382;2024-02-26T09:22:34;152281.25;;;12.63;100.00
10006;BME280;5042;42.626;23.382;2024-02-26T09:25:04;152292.94;;;12.67;100.00
10006;BME280;5042;42.626;23.382;2024-02-26T09:27:32;152322.81;;;12.79;100.00
10006;BME280;5042;42.626;23.382;2024-02-26T09:29:58;152311.13;;;12.75;100.00
10006;BME280;5042;42.626;23.382;2024-02-26T09:32:27;152342.31;;;12.87;100.00
10006;BME280;5042;42.626;23.382;2024-02-26T09:34:54;152390.38;;;13.06;100.00
10006;BME280;5042;42.626;23.382;2024-02-26T09:37:20;152382.59;;;13.03;100.00
10006;BME280;5042;42.626;23.382;2024-02-26T09:39:47;152373.47;;;12.99;100.00
10006;BME280;5042;42.626;23.382;2024-02-26T09:42:18;152409.84;;;13.13;100.00
10006;BME280;5042;42.626;23.382;2024-02-26T09:44:45;152469.69;;;13.37;100.00
10006;BME280;5042;42.626;23.382;2024-02-26T09:47:14;152520.34;;;13.57;100.00
10006;BME280;5042;42.626;23.382;2024-02-26T09:49:44;152464.47;;;13.35;100.00
10006;BME280;5042;42.626;23.382;2024-02-26T09:52:15;152474.88;;;13.39;100.00
10006;BME280;5042;42.626;23.382;2024-02-26T09:54:47;152513.84;;;13.54;100.00
10006;BME280;5042;42.626;23.382;2024-02-26T09:57:15;152533.38;;;13.62;100.00
10006;BME280;5042;42.626;23.382;2024-02-26T09:59:43;152511.28;;;13.53;100.00
10006;BME280;5042;42.626;23.382;2024-02-26T10:02:12;152535.97;;;13.63;100.00
10006;BME280;5042;42.626;23.382;2024-02-26T10:04:40;152589.28;;;13.84;100.00
10006;BME280;5042;42.626;23.382;2024-02-26T10:07:10;152602.25;;;13.89;100.00
10006;BME280;5042;42.626;23.382;2024-02-26T10:09:37;152456.69;;;13.32;100.00
10006;BME280;5042;42.626;23.382;2024-02-26T10:12:06;152556.75;;;13.71;100.00
10006;BME280;5042;42.626;23.382;2024-02-26T10:14:33;152565.88;;;13.75;100.00
10006;BME280;5042;42.626;23.382;2024-02-26T10:17:02;152511.28;;;13.53;100.00
10006;BME280;5042;42.626;23.382;2024-02-26T10:19:30;152396.88;;;13.08;100.00
10006;BME280;5042;42.626;23.382;2024-02-26T10:21:57;152404.66;;;13.11;100.00
10006;BME280;5042;42.626;23.382;2024-02-26T10:24:26;152096.84;;;11.90;100.00
10006;BME280;5042;42.626;23.382;2024-02-26T10:26:55;152425.47;;;13.20;100.00
10006;BME280;5042;42.626;23.382;2024-02-26T10:29:23;152452.78;;;13.30;100.00
10006;BME280;5042;42.626;23.382;2024-02-26T10:31:50;152472.25;;;13.38;100.00
10006;BME280;5042;42.626;23.382;2024-02-26T10:34:17;152491.78;;;13.46;100.00
10006;BME280;5042;42.626;23.382;2024-02-26T10:36:45;152350.06;;;12.90;100.00
10006;BME280;5042;42.626;23.382;2024-02-26T10:39:12;152329.31;;;12.82;100.00
10006;BME280;5042;42.626;23.382;2024-02-26T10:41:42;152261.72;;;12.55;100.00
10006;BME280;5042;42.626;23.382;2024-02-26T10:44:10;152285.13;;;12.64;100.00
10006;BME280;5042;42.626;23.382;2024-02-26T10:46:37;152355.28;;;12.92;100.00
10006;BME280;5042;42.626;23.382;2024-02-26T10:49:05;152378.69;;;13.01;100.00
10006;BME280;5042;42.626;23.382;2024-02-26T10:51:34;152428.03;;;13.21;100.00
10006;BME280;5042;42.626;23.382;2024-02-26T10:54:04;152447.56;;;13.28;100.00
10006;BME280;5042;42.626;23.382;2024-02-26T10:56:34;152491.78;;;13.46;100.00
10006;BME280;5042;42.626;23.382;2024-02-26T10:59:07;152572.34;;;13.77;100.00
10006;BME280;5042;42.626;23.382;2024-02-26T11:01:36;152602.25;;;13.89;100.00
10006;BME280;5042;42.626;23.382;2024-02-26T11:04:04;152604.84;;;13.90;100.00
10006;BME280;5042;42.626;23.382;2024-02-26T11:06:31;152616.53;;;13.95;100.00
10006;BME280;5042;42.626;23.382;2024-02-26T11:09:01;152613.97;;;13.94;100.00
10006;BME280;5042;42.626;23.382;2024-02-26T11:11:30;152628.25;;;13.99;100.00
10006;BME280;5042;42.626;23.382;2024-02-26T11:14:01;152597.06;;;13.87;100.00
10006;BME280;5042;42.626;23.382;2024-02-26T11:16:31;152589.28;;;13.84;100.00
10006;BME280;5042;42.626;23.382;2024-02-26T11:19:02;152529.47;;;13.61;100.00
10006;BME280;5042;42.626;23.382;2024-02-26T11:21:29;152502.16;;;13.50;100.00
10006;BME280;5042;42.626;23.382;2024-02-26T11:24:05;152534.69;;;13.63;100.00
10006;BME280;5042;42.626;23.382;2024-02-26T11:26:34;152578.84;;;13.80;100.00
10006;BME280;5042;42.626;23.382;2024-02-26T11:29:04;152612.69;;;13.93;100.00
10006;BME280;5042;42.626;23.382;2024-02-26T11:31:33;152636.09;;;14.03;100.00
10006;BME280;5042;42.626;23.382;2024-02-26T11:34:01;152649.09;;;14.08;100.00
10006;BME280;5042;42.626;23.382;2024-02-26T11:36:28;152676.38;;;14.18;100.00
10006;BME280;5042;42.626;23.382;2024-02-26T11:38:55;152707.63;;;14.31;100.00
10006;BME280;5042;42.626;23.382;2024-02-26T11:41:22;152708.91;;;14.31;99.32
10006;BME280;5042;42.626;23.382;2024-02-26T11:43:50;152701.06;;;14.28;98.21
10006;BME280;5042;42.626;23.382;2024-02-26T11:46:28;152662.06;;;14.13;96.64
10006;BME280;5042;42.626;23.382;2024-02-26T11:49:01;152634.75;;;14.02;96.96
10006;BME280;5042;42.626;23.382;2024-02-26T11:51:33;152636.09;;;14.03;98.37
10006;BME280;5042;42.626;23.382;2024-02-26T11:54:01;152659.50;;;14.12;96.57
10006;BME280;5042;42.626;23.382;2024-02-26T11:56:28;152626.97;;;13.99;97.25
10006;BME280;5042;42.626;23.382;2024-02-26T11:58:59;152604.84;;;13.90;97.61
10006;BME280;5042;42.626;23.382;2024-02-26T12:01:42;152465.75;;;13.35;99.48
10006;BME280;5042;42.626;23.382;2024-02-26T12:04:22;152569.78;;;13.76;100.00
10006;BME280;5042;42.626;23.382;2024-02-26T12:06:52;152621.75;;;13.97;99.98
10006;BME280;5042;42.626;23.382;2024-02-26T12:09:36;152611.38;;;13.93;98.69
10006;BME280;5042;42.626;23.382;2024-02-26T12:12:04;152630.88;;;14.00;98.97
10006;BME280;5042;42.626;23.382;2024-02-26T12:14:33;152617.88;;;13.95;98.40
10006;BME280;5042;42.626;23.382;2024-02-26T12:17:01;152694.56;;;14.26;93.17
10006;BME280;5042;42.626;23.382;2024-02-26T12:19:34;152719.28;;;14.35;92.70
10006;BME280;5042;42.626;23.382;2024-02-26T12:22:02;152740.09;;;14.43;91.36
10006;BME280;5042;42.626;23.382;2024-02-26T12:24:30;152776.56;;;14.58;90.74
10006;BME280;5042;42.626;23.382;2024-02-26T12:26:57;152780.50;;;14.59;89.56
10006;BME280;5042;42.626;23.382;2024-02-26T12:29:24;152784.38;;;14.61;87.86
10006;BME280;5042;42.626;23.382;2024-02-26T12:31:51;152767.44;;;14.54;89.54
10006;BME280;5042;42.626;23.382;2024-02-26T12:34:18;152770.06;;;14.55;87.96
10006;BME280;5042;42.626;23.382;2024-02-26T12:36:46;152766.16;;;14.54;86.32
10006;BME280;5042;42.626;23.382;2024-02-26T12:39:13;152828.63;;;14.78;84.88
10006;BME280;5042;42.626;23.382;2024-02-26T12:41:40;152763.53;;;14.53;82.82
10006;BME280;5042;42.626;23.382;2024-02-26T12:44:11;152867.63;;;14.94;81.47
10006;BME280;5042;42.626;23.382;2024-02-26T12:46:39;152874.13;;;14.96;80.81
10006;BME280;5042;42.626;23.382;2024-02-26T12:49:06;152883.25;;;15.00;79.82
10006;BME280;5042;42.626;23.382;2024-02-26T12:51:33;152891.06;;;15.03;78.09